Terminal Aerodrome Forecast
Issued by NWS

Home | Current Version | Previous Version | Text Only | Print | Product List | Glossary On
Versions: 1 2 3 4 5 6 7 8 9 10 11 12 13 14 15 16 17 18 19 20 21 22 23 24 25 26 27
000
FTUS43 KDVN 232205 AAB
TAFCID
TAF AMD
KCID 232205Z 2322/2418 32010KT P6SM VCSH BKN040
      TEMPO 2322/2324 31015G21KT P6SM -RA SCT020 BKN050
     FM240000 33007KT P6SM BKN050
     FM240900 34006KT 4SM BR SCT008 BKN015
     FM241500 01011KT P6SM BKN020=

USA.gov is the U.S. government's official web portal to all federal, state and local government web resources and services.